METAR Data
IDs: Format: Raw Decoded Include TAF

Data at: 0927 UTC 20 Sep 2018

PATG 200856Z AUTO 23006KT 10SM FEW012 OVC044 10/08 A3029 RMK AO2 SLP352 6//// T01000083 401280039 58002 PNO $
PATG 200756Z AUTO 24004KT 10SM OVC044 10/09 A3029 RMK AO2 SLP353 T01000089 PNO $
PATG 200711Z AUTO 19006KT 10SM SCT026 OVC040 10/08 A3030 RMK AO2 PNO $
PATG 200656Z AUTO 24004KT 10SM SCT021 BKN026 OVC047 10/08 A3030 RMK AO2 SLP354 T01000083 PNO $
PATG 200645Z AUTO 26004KT 10SM BKN021 BKN026 OVC035 11/08 A3030 RMK AO2 PNO $
PATG 200556Z AUTO 23005KT 10SM OVC050 10/09 A3030 RMK AO2 SLP354 6//// T01000089 10128 20100 58002 PNO $
PATG 200456Z AUTO 26006KT 10SM OVC036 11/09 A3030 RMK AO2 SLP355 T01060094 PNO $
PATG 200447Z AUTO 26006KT 10SM FEW009 OVC034 11/09 A3030 RMK AO2 PNO $
PATG 200436Z AUTO 24005KT 10SM SCT013 OVC030 11/09 A3030 RMK AO2 PNO $
PATG 200411Z AUTO 24006KT 10SM BKN013 OVC020 11/09 A3030 RMK AO2 PNO $
PATG 200404Z AUTO 24006KT 10SM BKN015 OVC020 11/10 A3030 RMK AO2 PNO $
PATG 200356Z AUTO 25007KT 6SM BR BKN013 OVC020 11/09 A3030 RMK AO2 SLP358 T01060094 PNO $
PATG 200353Z AUTO 25006KT 6SM BR BKN013 OVC020 11/09 A3030 RMK AO2 PNO $
PATG 200256Z AUTO 27012KT 10SM BKN015 OVC022 12/09 A3030 RMK AO2 SLP354 6//// T01170094 58006 PNO $
PATG 200209Z AUTO 24008KT 10SM FEW012 SCT019 OVC029 12/09 A3030 RMK AO2 PNO $
PATG 200152Z AUTO 21008KT 10SM FEW006 BKN013 OVC025 11/10 A3031 RMK AO2 PNO $
PATG 200131Z AUTO 22009KT 3SM BR FEW007 BKN016 OVC027 11/10 A3031 RMK AO2 PNO $
PATG 200056Z AUTO 23011KT 10SM OVC022 12/09 A3031 RMK AO2 SLP360 T01170089 PNO $
PATG 200032Z AUTO 23008KT 10SM SCT022 BKN027 OVC037 12/08 A3032 RMK AO2 PNO $
PATG 192356Z AUTO 24007KT 10SM BKN034 OVC055 12/08 A3032 RMK AO2 SLP363 6//// T01220078 10128 20094 56004 PNO $
PATG 192305Z AUTO 26012KT 10SM SCT026 OVC045 12/08 A3032 RMK AO2 PNO $
PATG 192256Z AUTO 26012KT 10SM BKN026 OVC047 12/07 A3033 RMK AO2 SLP365 T01220072 PNO $
PATG 192254Z AUTO 27011KT 10SM BKN026 OVC050 12/07 A3033 RMK AO2 PNO $
PATG 192156Z AUTO 26010G16KT 10SM OVC055 12/07 A3033 RMK AO2 SLP367 T01220072 PNO $
PATG 192056Z AUTO 27007KT 10SM OVC045 11/07 A3035 RMK AO2 SLP371 6//// T01110072 56003 PNO $
PATG 191956Z AUTO 28006KT 10SM OVC045 11/08 A3035 RMK AO2 SLP372 T01060078 PNO $
PATG 191856Z AUTO 28008KT 10SM OVC043 10/08 A3035 RMK AO2 SLP373 T01000083 PNO $
PATG 191756Z AUTO 32005KT 10SM SCT031 OVC035 09/08 A3036 RMK AO2 SLP375 6//// T00940083 10094 20039 58003 PNO $
PATG 191656Z AUTO 05003KT 10SM FEW017 OVC042 07/06 A3037 RMK AO2 SLP379 T00670056 PNO $
PATG 191556Z AUTO 00000KT 10SM OVC040 05/04 A3036 RMK AO2 SLP377 T00500044 PNO $
PATG 191456Z AUTO 29004KT 10SM SCT042 06/05 A3037 RMK AO2 SLP378 6//// T00560050 53003 PNO $
PATG 191356Z AUTO 36004KT 10SM CLR 04/04 A3036 RMK AO2 SLP375 T00440039 PNO $
PATG 191256Z AUTO 32004KT 10SM CLR 06/04 A3036 RMK AO2 SLP375 T00560044 PNO $
PATG 191156Z AUTO 01006KT 10SM CLR 06/04 A3036 RMK AO2 SLP375 6//// 7//// T00560039 10083 20050 52003 PNO $
PATG 191056Z AUTO 01006KT 10SM CLR 06/04 A3035 RMK AO2 SLP374 T00610039 PNO $
PATG 190956Z AUTO 02004KT 10SM CLR 07/04 A3035 RMK AO2 SLP373 T00670044 PNO $
PATG 190756Z AUTO 00000KT 10SM CLR 07/04 A3034 RMK AO2 SLP370 T00720044 PNO $
PATG 190656Z AUTO 32005KT 10SM CLR 08/04 A3033 RMK AO2 SLP367 T00780044 PNO $
PATG 190556Z AUTO 31008KT 10SM CLR 08/05 A3032 RMK AO2 SLP364 6//// T00830050 10161 20083 53012 PNO $
PATG 190456Z AUTO 31007KT 10SM CLR 10/06 A3031 RMK AO2 SLP360 T01000056 PNO $
PATG 190356Z AUTO 31009KT 10SM CLR 13/06 A3030 RMK AO2 SLP354 T01280061 PNO $
PATG 190256Z AUTO 31011KT 10SM CLR 14/06 A3029 RMK AO2 SLP351 6//// T01440056 53003 PNO $
PATG 190156Z AUTO 31011KT 10SM CLR 16/06 A3028 RMK AO2 SLP350 T01560056 PNO $
PATG 190056Z AUTO 32008KT 10SM FEW049 16/06 A3028 RMK AO2 SLP348 T01610061 PNO $
PATG 182256Z AUTO 34009KT 10SM FEW041 16/06 A3029 RMK AO2 SLP351 T01560061 PNO $
PATG 182156Z AUTO 30009KT 10SM CLR 15/07 A3029 RMK AO2 SLP353 T01500067 PNO $